sensor_id;sensor_type;location;lat;lon;timestamp;temperature;humidity
68177;DHT22;56478;50.982;7.032;2023-04-03T00:01:13;4.05;76.87
68177;DHT22;56478;50.982;7.032;2023-04-03T00:03:38;3.92;77.37
68177;DHT22;56478;50.982;7.032;2023-04-03T00:06:05;3.87;77.59
68177;DHT22;56478;50.982;7.032;2023-04-03T00:08:33;3.82;76.90
68177;DHT22;56478;50.982;7.032;2023-04-03T00:10:59;3.80;76.96
68177;DHT22;56478;50.982;7.032;2023-04-03T00:13:25;3.69;76.97
68177;DHT22;56478;50.982;7.032;2023-04-03T00:15:51;3.60;77.30
68177;DHT22;56478;50.982;7.032;2023-04-03T00:18:16;3.60;77.52
68177;DHT22;56478;50.982;7.032;2023-04-03T00:20:42;3.54;77.75
68177;DHT22;56478;50.982;7.032;2023-04-03T00:23:07;3.47;77.08
68177;DHT22;56478;50.982;7.032;2023-04-03T00:25:33;3.47;76.92
68177;DHT22;56478;50.982;7.032;2023-04-03T00:27:58;3.44;77.54
68177;DHT22;56478;50.982;7.032;2023-04-03T00:30:24;3.40;77.22
68177;DHT22;56478;50.982;7.032;2023-04-03T00:32:51;3.36;77.22
68177;DHT22;56478;50.982;7.032;2023-04-03T00:35:18;3.37;76.99
68177;DHT22;56478;50.982;7.032;2023-04-03T00:37:45;3.32;76.56
68177;DHT22;56478;50.982;7.032;2023-04-03T00:40:12;3.29;76.17
68177;DHT22;56478;50.982;7.032;2023-04-03T00:42:40;3.26;76.80
68177;DHT22;56478;50.982;7.032;2023-04-03T00:47:31;3.22;76.71
68177;DHT22;56478;50.982;7.032;2023-04-03T00:49:57;3.23;76.61
68177;DHT22;56478;50.982;7.032;2023-04-03T00:52:26;3.26;76.83
68177;DHT22;56478;50.982;7.032;2023-04-03T00:54:57;3.28;75.95
68177;DHT22;56478;50.982;7.032;2023-04-03T00:57:23;3.28;77.08
68177;DHT22;56478;50.982;7.032;2023-04-03T00:59:53;3.30;76.61
68177;DHT22;56478;50.982;7.032;2023-04-03T01:02:19;3.33;76.73
68177;DHT22;56478;50.982;7.032;2023-04-03T01:04:45;3.26;77.18
68177;DHT22;56478;50.982;7.032;2023-04-03T01:07:18;3.25;76.37
68177;DHT22;56478;50.982;7.032;2023-04-03T01:09:45;3.19;76.65
68177;DHT22;56478;50.982;7.032;2023-04-03T01:14:57;3.08;76.96
68177;DHT22;56478;50.982;7.032;2023-04-03T01:17:42;3.02;76.70
68177;DHT22;56478;50.982;7.032;2023-04-03T01:25:15;2.95;78.67
68177;DHT22;56478;50.982;7.032;2023-04-03T01:27:41;2.92;79.23
68177;DHT22;56478;50.982;7.032;2023-04-03T01:30:06;2.87;79.07
68177;DHT22;56478;50.982;7.032;2023-04-03T01:32:32;2.84;79.14
68177;DHT22;56478;50.982;7.032;2023-04-03T01:34:58;2.80;79.76
68177;DHT22;56478;50.982;7.032;2023-04-03T01:37:23;2.83;79.18
68177;DHT22;56478;50.982;7.032;2023-04-03T01:39:49;2.80;79.62
68177;DHT22;56478;50.982;7.032;2023-04-03T01:42:14;2.79;79.33
68177;DHT22;56478;50.982;7.032;2023-04-03T01:44:41;2.79;79.39
68177;DHT22;56478;50.982;7.032;2023-04-03T01:47:07;2.76;79.85
68177;DHT22;56478;50.982;7.032;2023-04-03T01:49:32;2.76;79.09
68177;DHT22;56478;50.982;7.032;2023-04-03T01:51:58;2.73;79.39
68177;DHT22;56478;50.982;7.032;2023-04-03T01:54:23;2.67;79.59
68177;DHT22;56478;50.982;7.032;2023-04-03T01:56:49;2.61;78.73
68177;DHT22;56478;50.982;7.032;2023-04-03T01:59:14;2.63;78.87
68177;DHT22;56478;50.982;7.032;2023-04-03T02:01:42;2.63;79.65
68177;DHT22;56478;50.982;7.032;2023-04-03T02:04:11;2.63;78.12
68177;DHT22;56478;50.982;7.032;2023-04-03T02:06:36;2.66;77.92
68177;DHT22;56478;50.982;7.032;2023-04-03T02:09:02;2.63;78.29
68177;DHT22;56478;50.982;7.032;2023-04-03T02:11:28;2.64;77.89
68177;DHT22;56478;50.982;7.032;2023-04-03T02:13:53;2.66;77.80
68177;DHT22;56478;50.982;7.032;2023-04-03T02:16:19;2.64;78.58
68177;DHT22;56478;50.982;7.032;2023-04-03T02:18:44;2.64;78.53
68177;DHT22;56478;50.982;7.032;2023-04-03T02:21:10;2.68;78.53
68177;DHT22;56478;50.982;7.032;2023-04-03T02:23:35;2.64;77.90
68177;DHT22;56478;50.982;7.032;2023-04-03T02:26:10;2.67;78.39
68177;DHT22;56478;50.982;7.032;2023-04-03T02:28:36;2.67;78.95
68177;DHT22;56478;50.982;7.032;2023-04-03T02:31:03;2.61;78.73
68177;DHT22;56478;50.982;7.032;2023-04-03T02:33:29;2.58;78.59
68177;DHT22;56478;50.982;7.032;2023-04-03T02:35:55;2.52;79.07
68177;DHT22;56478;50.982;7.032;2023-04-03T02:38:21;2.53;78.90
68177;DHT22;56478;50.982;7.032;2023-04-03T02:40:47;2.53;79.36
68177;DHT22;56478;50.982;7.032;2023-04-03T02:43:12;2.46;78.87
68177;DHT22;56478;50.982;7.032;2023-04-03T02:45:37;2.39;79.70
68177;DHT22;56478;50.982;7.032;2023-04-03T02:48:03;2.40;79.55
68177;DHT22;56478;50.982;7.032;2023-04-03T02:50:29;2.38;78.17
68177;DHT22;56478;50.982;7.032;2023-04-03T02:52:54;2.38;78.26
68177;DHT22;56478;50.982;7.032;2023-04-03T02:55:20;2.43;78.77
68177;DHT22;56478;50.982;7.032;2023-04-03T02:57:45;2.46;79.15
68177;DHT22;56478;50.982;7.032;2023-04-03T03:00:11;2.42;79.55
68177;DHT22;56478;50.982;7.032;2023-04-03T03:02:37;2.39;79.56
68177;DHT22;56478;50.982;7.032;2023-04-03T03:05:02;2.42;78.57
68177;DHT22;56478;50.982;7.032;2023-04-03T03:07:28;2.42;78.75
68177;DHT22;56478;50.982;7.032;2023-04-03T03:09:53;2.39;78.22
68177;DHT22;56478;50.982;7.032;2023-04-03T03:12:19;2.45;78.19
68177;DHT22;56478;50.982;7.032;2023-04-03T03:14:47;2.40;77.41
68177;DHT22;56478;50.982;7.032;2023-04-03T03:17:13;2.42;77.26
68177;DHT22;56478;50.982;7.032;2023-04-03T03:19:38;2.45;77.27
68177;DHT22;56478;50.982;7.032;2023-04-03T03:22:03;2.53;77.21
68177;DHT22;56478;50.982;7.032;2023-04-03T03:24:29;2.50;76.67
68177;DHT22;56478;50.982;7.032;2023-04-03T03:26:55;2.52;76.73
68177;DHT22;56478;50.982;7.032;2023-04-03T03:29:20;2.50;76.12
68177;DHT22;56478;50.982;7.032;2023-04-03T03:31:46;2.56;75.89
68177;DHT22;56478;50.982;7.032;2023-04-03T03:34:11;2.50;75.78
68177;DHT22;56478;50.982;7.032;2023-04-03T03:36:37;2.47;76.13
68177;DHT22;56478;50.982;7.032;2023-04-03T03:39:02;2.47;75.70
68177;DHT22;56478;50.982;7.032;2023-04-03T03:41:28;2.52;75.90
68177;DHT22;56478;50.982;7.032;2023-04-03T03:43:53;2.52;75.43
68177;DHT22;56478;50.982;7.032;2023-04-03T03:46:19;2.52;76.05
68177;DHT22;56478;50.982;7.032;2023-04-03T03:48:44;2.46;75.42
68177;DHT22;56478;50.982;7.032;2023-04-03T03:51:10;2.54;75.71
68177;DHT22;56478;50.982;7.032;2023-04-03T03:53:35;2.47;75.28
68177;DHT22;56478;50.982;7.032;2023-04-03T03:56:01;2.54;75.09
68177;DHT22;56478;50.982;7.032;2023-04-03T03:58:27;2.50;75.15
68177;DHT22;56478;50.982;7.032;2023-04-03T04:00:52;2.53;75.27
68177;DHT22;56478;50.982;7.032;2023-04-03T04:03:18;2.57;75.07
68177;DHT22;56478;50.982;7.032;2023-04-03T04:05:43;2.53;74.90
68177;DHT22;56478;50.982;7.032;2023-04-03T04:08:09;2.50;74.96
68177;DHT22;56478;50.982;7.032;2023-04-03T04:10:35;2.49;74.75
68177;DHT22;56478;50.982;7.032;2023-04-03T04:13:02;2.52;74.96
68177;DHT22;56478;50.982;7.032;2023-04-03T04:15:28;2.54;74.91
68177;DHT22;56478;50.982;7.032;2023-04-03T04:17:54;2.52;74.76
68177;DHT22;56478;50.982;7.032;2023-04-03T04:20:20;2.57;75.29
68177;DHT22;56478;50.982;7.032;2023-04-03T04:22:45;2.54;74.73
68177;DHT22;56478;50.982;7.032;2023-04-03T04:25:11;2.56;74.74
68177;DHT22;56478;50.982;7.032;2023-04-03T04:27:37;2.53;74.58
68177;DHT22;56478;50.982;7.032;2023-04-03T04:30:03;2.54;74.60
68177;DHT22;56478;50.982;7.032;2023-04-03T04:32:29;2.60;74.67
68177;DHT22;56478;50.982;7.032;2023-04-03T04:34:55;2.54;74.26
68177;DHT22;56478;50.982;7.032;2023-04-03T04:37:20;2.54;74.76
68177;DHT22;56478;50.982;7.032;2023-04-03T04:39:46;2.53;74.80
68177;DHT22;56478;50.982;7.032;2023-04-03T04:42:11;2.54;74.16
68177;DHT22;56478;50.982;7.032;2023-04-03T04:44:39;2.58;74.06
68177;DHT22;56478;50.982;7.032;2023-04-03T04:47:04;2.50;74.08
68177;DHT22;56478;50.982;7.032;2023-04-03T04:49:30;2.49;74.80
68177;DHT22;56478;50.982;7.032;2023-04-03T04:51:55;2.47;74.20
68177;DHT22;56478;50.982;7.032;2023-04-03T04:54:21;2.47;74.14
68177;DHT22;56478;50.982;7.032;2023-04-03T04:56:46;2.47;74.78
68177;DHT22;56478;50.982;7.032;2023-04-03T04:59:12;2.47;74.93
68177;DHT22;56478;50.982;7.032;2023-04-03T05:01:37;2.47;75.27
68177;DHT22;56478;50.982;7.032;2023-04-03T05:04:03;2.49;74.10
68177;DHT22;56478;50.982;7.032;2023-04-03T05:06:28;2.47;74.88
68177;DHT22;56478;50.982;7.032;2023-04-03T05:08:55;2.53;75.15
68177;DHT22;56478;50.982;7.032;2023-04-03T05:11:21;2.52;74.18
68177;DHT22;56478;50.982;7.032;2023-04-03T05:13:47;2.54;74.77
68177;DHT22;56478;50.982;7.032;2023-04-03T05:16:12;2.56;74.83
68177;DHT22;56478;50.982;7.032;2023-04-03T05:18:38;2.56;74.48
68177;DHT22;56478;50.982;7.032;2023-04-03T05:21:03;2.57;74.90
68177;DHT22;56478;50.982;7.032;2023-04-03T05:23:29;2.56;74.09
68177;DHT22;56478;50.982;7.032;2023-04-03T05:25:54;2.58;74.44
68177;DHT22;56478;50.982;7.032;2023-04-03T05:28:20;2.60;74.29
68177;DHT22;56478;50.982;7.032;2023-04-03T05:30:45;2.57;73.95
68177;DHT22;56478;50.982;7.032;2023-04-03T05:33:11;2.64;74.37
68177;DHT22;56478;50.982;7.032;2023-04-03T05:35:37;2.64;73.90
68177;DHT22;56478;50.982;7.032;2023-04-03T05:38:06;2.64;74.29
68177;DHT22;56478;50.982;7.032;2023-04-03T05:40:32;2.73;74.06
68177;DHT22;56478;50.982;7.032;2023-04-03T05:42:57;2.74;73.80
68177;DHT22;56478;50.982;7.032;2023-04-03T05:45:23;2.77;74.51
68177;DHT22;56478;50.982;7.032;2023-04-03T05:47:48;2.81;74.20
68177;DHT22;56478;50.982;7.032;2023-04-03T05:50:14;2.85;73.57
68177;DHT22;56478;50.982;7.032;2023-04-03T05:52:43;2.83;73.24
68177;DHT22;56478;50.982;7.032;2023-04-03T05:55:09;2.90;73.49
68177;DHT22;56478;50.982;7.032;2023-04-03T05:57:34;2.95;73.36
68177;DHT22;56478;50.982;7.032;2023-04-03T06:00:00;2.94;73.28
68177;DHT22;56478;50.982;7.032;2023-04-03T06:02:25;3.01;73.12
68177;DHT22;56478;50.982;7.032;2023-04-03T06:04:52;3.11;72.84
68177;DHT22;56478;50.982;7.032;2023-04-03T06:07:22;3.16;72.81
68177;DHT22;56478;50.982;7.032;2023-04-03T06:09:49;3.25;72.52
68177;DHT22;56478;50.982;7.032;2023-04-03T06:12:15;3.22;72.14
68177;DHT22;56478;50.982;7.032;2023-04-03T06:14:40;3.37;72.32
68177;DHT22;56478;50.982;7.032;2023-04-03T06:17:07;3.63;71.36
68177;DHT22;56478;50.982;7.032;2023-04-03T06:19:34;5.64;65.85
68177;DHT22;56478;50.982;7.032;2023-04-03T06:22:00;8.32;59.27
68177;DHT22;56478;50.982;7.032;2023-04-03T06:24:26;9.66;53.23
68177;DHT22;56478;50.982;7.032;2023-04-03T06:26:52;9.80;50.53
68177;DHT22;56478;50.982;7.032;2023-04-03T06:29:19;9.15;52.10
68177;DHT22;56478;50.982;7.032;2023-04-03T06:31:45;9.31;52.07
68177;DHT22;56478;50.982;7.032;2023-04-03T06:34:12;9.39;51.79
68177;DHT22;56478;50.982;7.032;2023-04-03T06:36:38;9.08;53.07
68177;DHT22;56478;50.982;7.032;2023-04-03T06:39:04;9.01;54.01
68177;DHT22;56478;50.982;7.032;2023-04-03T06:41:30;9.18;52.21
68177;DHT22;56478;50.982;7.032;2023-04-03T06:43:55;9.54;51.08
68177;DHT22;56478;50.982;7.032;2023-04-03T06:46:23;9.57;51.68
68177;DHT22;56478;50.982;7.032;2023-04-03T06:48:49;9.52;51.88
68177;DHT22;56478;50.982;7.032;2023-04-03T06:51:18;9.78;50.39
68177;DHT22;56478;50.982;7.032;2023-04-03T06:53:45;10.09;48.25
68177;DHT22;56478;50.982;7.032;2023-04-03T06:56:11;9.52;50.79
68177;DHT22;56478;50.982;7.032;2023-04-03T06:58:36;10.32;48.11
68177;DHT22;56478;50.982;7.032;2023-04-03T07:01:02;11.01;47.27
68177;DHT22;56478;50.982;7.032;2023-04-03T07:03:28;10.87;46.83
68177;DHT22;56478;50.982;7.032;2023-04-03T07:05:54;10.85;46.44
68177;DHT22;56478;50.982;7.032;2023-04-03T07:08:20;10.25;49.13
68177;DHT22;56478;50.982;7.032;2023-04-03T07:10:46;11.25;45.97
68177;DHT22;56478;50.982;7.032;2023-04-03T07:13:11;12.54;42.77
68177;DHT22;56478;50.982;7.032;2023-04-03T07:15:37;14.05;38.90
68177;DHT22;56478;50.982;7.032;2023-04-03T07:18:03;14.60;38.48
68177;DHT22;56478;50.982;7.032;2023-04-03T07:20:29;14.08;39.00
68177;DHT22;56478;50.982;7.032;2023-04-03T07:22:55;13.33;40.49
68177;DHT22;56478;50.982;7.032;2023-04-03T07:25:20;12.63;42.31
68177;DHT22;56478;50.982;7.032;2023-04-03T07:27:46;13.27;40.07
68177;DHT22;56478;50.982;7.032;2023-04-03T07:30:13;12.98;40.84
68177;DHT22;56478;50.982;7.032;2023-04-03T07:32:39;13.55;40.67
68177;DHT22;56478;50.982;7.032;2023-04-03T07:35:04;14.41;39.31
68177;DHT22;56478;50.982;7.032;2023-04-03T07:37:30;14.93;36.49
68177;DHT22;56478;50.982;7.032;2023-04-03T07:39:55;16.43;34.07
68177;DHT22;56478;50.982;7.032;2023-04-03T07:42:22;17.03;34.55
68177;DHT22;56478;50.982;7.032;2023-04-03T07:44:47;17.21;34.02
68177;DHT22;56478;50.982;7.032;2023-04-03T07:47:13;17.59;32.38
68177;DHT22;56478;50.982;7.032;2023-04-03T07:49:41;18.96;30.26
68177;DHT22;56478;50.982;7.032;2023-04-03T07:52:06;20.22;28.10
68177;DHT22;56478;50.982;7.032;2023-04-03T07:54:34;19.98;28.54
68177;DHT22;56478;50.982;7.032;2023-04-03T07:56:59;20.16;26.87
68177;DHT22;56478;50.982;7.032;2023-04-03T07:59:25;19.57;28.03
68177;DHT22;56478;50.982;7.032;2023-04-03T08:01:51;19.00;28.57
68177;DHT22;56478;50.982;7.032;2023-04-03T08:04:16;19.21;28.97
68177;DHT22;56478;50.982;7.032;2023-04-03T08:06:42;21.12;26.35
68177;DHT22;56478;50.982;7.032;2023-04-03T08:09:07;21.31;26.94
68177;DHT22;56478;50.982;7.032;2023-04-03T08:11:33;21.66;24.96
68177;DHT22;56478;50.982;7.032;2023-04-03T08:13:59;21.59;25.97
68177;DHT22;56478;50.982;7.032;2023-04-03T08:16:24;21.20;25.99
68177;DHT22;56478;50.982;7.032;2023-04-03T08:18:54;22.14;25.67
68177;DHT22;56478;50.982;7.032;2023-04-03T08:21:20;22.44;25.05
68177;DHT22;56478;50.982;7.032;2023-04-03T08:23:48;23.03;23.86
68177;DHT22;56478;50.982;7.032;2023-04-03T08:26:18;22.01;24.08
68177;DHT22;56478;50.982;7.032;2023-04-03T08:28:44;21.63;24.60
68177;DHT22;56478;50.982;7.032;2023-04-03T08:31:11;21.30;25.50
68177;DHT22;56478;50.982;7.032;2023-04-03T08:33:39;22.35;24.99
68177;DHT22;56478;50.982;7.032;2023-04-03T08:36:07;20.59;24.66
68177;DHT22;56478;50.982;7.032;2023-04-03T08:38:33;21.30;24.83
68177;DHT22;56478;50.982;7.032;2023-04-03T08:44:04;22.29;23.36
68177;DHT22;56478;50.982;7.032;2023-04-03T08:49:40;22.48;22.30
68177;DHT22;56478;50.982;7.032;2023-04-03T08:52:14;23.48;20.00
68177;DHT22;56478;50.982;7.032;2023-04-03T08:54:53;23.00;22.01
68177;DHT22;56478;50.982;7.032;2023-04-03T08:57:23;21.98;23.97
68177;DHT22;56478;50.982;7.032;2023-04-03T08:59:51;23.38;22.08
68177;DHT22;56478;50.982;7.032;2023-04-03T09:02:32;23.12;21.14
68177;DHT22;56478;50.982;7.032;2023-04-03T09:04:58;23.07;22.16
68177;DHT22;56478;50.982;7.032;2023-04-03T09:07:39;23.25;21.67
68177;DHT22;56478;50.982;7.032;2023-04-03T09:10:11;22.89;22.91
68177;DHT22;56478;50.982;7.032;2023-04-03T09:12:40;23.48;21.40
68177;DHT22;56478;50.982;7.032;2023-04-03T09:15:17;22.67;20.75
68177;DHT22;56478;50.982;7.032;2023-04-03T09:18:06;23.00;20.88
68177;DHT22;56478;50.982;7.032;2023-04-03T09:23:42;24.40;19.81
68177;DHT22;56478;50.982;7.032;2023-04-03T09:26:14;24.35;20.00
68177;DHT22;56478;50.982;7.032;2023-04-03T09:28:42;24.21;20.54
68177;DHT22;56478;50.982;7.032;2023-04-03T09:31:26;24.91;18.97
68177;DHT22;56478;50.982;7.032;2023-04-03T09:34:02;22.84;21.24
68177;DHT22;56478;50.982;7.032;2023-04-03T09:36:44;23.51;21.66
68177;DHT22;56478;50.982;7.032;2023-04-03T09:39:23;24.66;21.80
68177;DHT22;56478;50.982;7.032;2023-04-03T09:42:14;24.24;21.10
68177;DHT22;56478;50.982;7.032;2023-04-03T09:44:42;24.38;20.36
68177;DHT22;56478;50.982;7.032;2023-04-03T09:47:28;25.07;19.09
68177;DHT22;56478;50.982;7.032;2023-04-03T09:52:49;24.76;19.82
68177;DHT22;56478;50.982;7.032;2023-04-03T09:55:17;23.12;21.62
68177;DHT22;56478;50.982;7.032;2023-04-03T09:57:45;25.07;19.26
68177;DHT22;56478;50.982;7.032;2023-04-03T10:00:24;23.42;20.99
68177;DHT22;56478;50.982;7.032;2023-04-03T10:02:54;23.53;22.16
68177;DHT22;56478;50.982;7.032;2023-04-03T10:05:35;24.14;20.99
68177;DHT22;56478;50.982;7.032;2023-04-03T10:10:40;23.00;21.86
68177;DHT22;56478;50.982;7.032;2023-04-03T10:13:15;23.49;21.08
68177;DHT22;56478;50.982;7.032;2023-04-03T10:16:07;23.42;21.07
68177;DHT22;56478;50.982;7.032;2023-04-03T10:18:46;23.76;21.67
68177;DHT22;56478;50.982;7.032;2023-04-03T10:21:38;23.70;20.09
68177;DHT22;56478;50.982;7.032;2023-04-03T10:24:14;23.93;19.80
68177;DHT22;56478;50.982;7.032;2023-04-03T10:34:57;23.06;17.87
68177;DHT22;56478;50.982;7.032;2023-04-03T10:37:27;22.90;20.62
68177;DHT22;56478;50.982;7.032;2023-04-03T10:40:10;23.71;21.18
68177;DHT22;56478;50.982;7.032;2023-04-03T10:43:09;22.70;21.25
68177;DHT22;56478;50.982;7.032;2023-04-03T10:48:38;23.94;19.94
68177;DHT22;56478;50.982;7.032;2023-04-03T10:53:56;21.30;19.85
68177;DHT22;56478;50.982;7.032;2023-04-03T10:59:13;18.97;23.35
68177;DHT22;56478;50.982;7.032;2023-04-03T11:01:42;19.10;22.64
68177;DHT22;56478;50.982;7.032;2023-04-03T11:04:09;19.34;21.45
68177;DHT22;56478;50.982;7.032;2023-04-03T11:06:41;18.40;23.53
68177;DHT22;56478;50.982;7.032;2023-04-03T11:09:23;17.72;25.17
68177;DHT22;56478;50.982;7.032;2023-04-03T11:11:55;17.62;24.77
68177;DHT22;56478;50.982;7.032;2023-04-03T11:14:32;16.88;24.41
68177;DHT22;56478;50.982;7.032;2023-04-03T11:19:52;16.92;25.94
68177;DHT22;56478;50.982;7.032;2023-04-03T11:24:56;16.82;26.52
68177;DHT22;56478;50.982;7.032;2023-04-03T11:27:24;16.57;26.51
68177;DHT22;56478;50.982;7.032;2023-04-03T11:29:51;16.64;26.74
68177;DHT22;56478;50.982;7.032;2023-04-03T11:34:57;16.80;27.90
68177;DHT22;56478;50.982;7.032;2023-04-03T11:37:41;16.35;25.88
68177;DHT22;56478;50.982;7.032;2023-04-03T11:40:19;16.23;26.82
68177;DHT22;56478;50.982;7.032;2023-04-03T11:42:49;16.43;26.08
68177;DHT22;56478;50.982;7.032;2023-04-03T11:55:57;14.78;27.83
68177;DHT22;56478;50.982;7.032;2023-04-03T11:58:27;15.03;25.33
68177;DHT22;56478;50.982;7.032;2023-04-03T12:01:00;15.19;26.20
68177;DHT22;56478;50.982;7.032;2023-04-03T12:16:28;15.03;26.60
68177;DHT22;56478;50.982;7.032;2023-04-03T12:45:52;14.08;25.51
68177;DHT22;56478;50.982;7.032;2023-04-03T12:48:22;13.89;26.74
68177;DHT22;56478;50.982;7.032;2023-04-03T12:50:50;14.01;26.66
68177;DHT22;56478;50.982;7.032;2023-04-03T12:53:21;14.43;28.74
68177;DHT22;56478;50.982;7.032;2023-04-03T12:55:57;14.57;24.95
68177;DHT22;56478;50.982;7.032;2023-04-03T12:58:28;14.44;26.61
68177;DHT22;56478;50.982;7.032;2023-04-03T13:01:03;14.54;27.98
68177;DHT22;56478;50.982;7.032;2023-04-03T13:03:34;14.10;26.15
68177;DHT22;56478;50.982;7.032;2023-04-03T13:06:02;14.08;25.62
68177;DHT22;56478;50.982;7.032;2023-04-03T13:08:29;13.83;26.15
68177;DHT22;56478;50.982;7.032;2023-04-03T13:11:06;13.16;25.75
68177;DHT22;56478;50.982;7.032;2023-04-03T13:13:33;13.35;28.13
68177;DHT22;56478;50.982;7.032;2023-04-03T13:15:59;13.94;30.71
68177;DHT22;56478;50.982;7.032;2023-04-03T13:18:32;13.98;30.33
68177;DHT22;56478;50.982;7.032;2023-04-03T13:21:13;13.79;26.39
68177;DHT22;56478;50.982;7.032;2023-04-03T13:23:42;14.09;27.61
68177;DHT22;56478;50.982;7.032;2023-04-03T13:26:10;13.94;26.66
68177;DHT22;56478;50.982;7.032;2023-04-03T13:28:37;13.70;26.30
68177;DHT22;56478;50.982;7.032;2023-04-03T13:31:19;13.78;28.63
68177;DHT22;56478;50.982;7.032;2023-04-03T13:34:03;13.95;28.80
68177;DHT22;56478;50.982;7.032;2023-04-03T13:36:36;13.94;30.22
68177;DHT22;56478;50.982;7.032;2023-04-03T13:39:21;13.97;27.94
68177;DHT22;56478;50.982;7.032;2023-04-03T13:41:53;13.65;29.32
68177;DHT22;56478;50.982;7.032;2023-04-03T13:46:53;13.79;30.90
68177;DHT22;56478;50.982;7.032;2023-04-03T13:51:48;13.39;28.96
68177;DHT22;56478;50.982;7.032;2023-04-03T13:54:24;13.47;31.26
68177;DHT22;56478;50.982;7.032;2023-04-03T13:56:55;13.33;30.41
68177;DHT22;56478;50.982;7.032;2023-04-03T13:59:29;13.58;30.31
68177;DHT22;56478;50.982;7.032;2023-04-03T14:02:12;13.35;29.65
68177;DHT22;56478;50.982;7.032;2023-04-03T14:07:14;13.35;31.42
68177;DHT22;56478;50.982;7.032;2023-04-03T14:09:41;13.48;30.98
68177;DHT22;56478;50.982;7.032;2023-04-03T14:12:30;13.61;31.82
68177;DHT22;56478;50.982;7.032;2023-04-03T14:14:57;13.63;31.57
68177;DHT22;56478;50.982;7.032;2023-04-03T14:17:26;13.54;30.67
68177;DHT22;56478;50.982;7.032;2023-04-03T14:19:52;13.39;32.36
68177;DHT22;56478;50.982;7.032;2023-04-03T14:22:26;13.47;33.23
68177;DHT22;56478;50.982;7.032;2023-04-03T14:24:54;13.29;31.58
68177;DHT22;56478;50.982;7.032;2023-04-03T14:27:24;13.47;31.42
68177;DHT22;56478;50.982;7.032;2023-04-03T14:29:52;13.33;31.68
68177;DHT22;56478;50.982;7.032;2023-04-03T14:32:20;13.24;30.55
68177;DHT22;56478;50.982;7.032;2023-04-03T14:34:46;13.15;30.92
68177;DHT22;56478;50.982;7.032;2023-04-03T14:37:24;12.89;31.88
68177;DHT22;56478;50.982;7.032;2023-04-03T14:39:51;12.74;32.05
68177;DHT22;56478;50.982;7.032;2023-04-03T14:42:22;12.80;32.26
68177;DHT22;56478;50.982;7.032;2023-04-03T14:44:49;12.80;31.25
68177;DHT22;56478;50.982;7.032;2023-04-03T14:47:18;12.80;30.90
68177;DHT22;56478;50.982;7.032;2023-04-03T14:49:45;12.69;31.55
68177;DHT22;56478;50.982;7.032;2023-04-03T14:52:23;12.73;31.87
68177;DHT22;56478;50.982;7.032;2023-04-03T14:54:49;12.49;32.90
68177;DHT22;56478;50.982;7.032;2023-04-03T14:57:15;12.40;33.01
68177;DHT22;56478;50.982;7.032;2023-04-03T14:59:42;12.40;34.02
68177;DHT22;56478;50.982;7.032;2023-04-03T15:04:57;12.57;33.43
68177;DHT22;56478;50.982;7.032;2023-04-03T15:07:25;12.68;32.45
68177;DHT22;56478;50.982;7.032;2023-04-03T15:09:52;12.43;33.25
68177;DHT22;56478;50.982;7.032;2023-04-03T15:12:18;12.53;33.11
68177;DHT22;56478;50.982;7.032;2023-04-03T15:14:43;12.26;34.09
68177;DHT22;56478;50.982;7.032;2023-04-03T15:17:16;12.44;34.94
68177;DHT22;56478;50.982;7.032;2023-04-03T15:19:42;12.21;34.97
68177;DHT22;56478;50.982;7.032;2023-04-03T15:22:13;12.44;36.69
68177;DHT22;56478;50.982;7.032;2023-04-03T15:24:39;12.57;34.42
68177;DHT22;56478;50.982;7.032;2023-04-03T15:27:04;12.28;32.53
68177;DHT22;56478;50.982;7.032;2023-04-03T15:29:30;12.39;32.44
68177;DHT22;56478;50.982;7.032;2023-04-03T15:31:55;12.32;33.53
68177;DHT22;56478;50.982;7.032;2023-04-03T15:34:21;12.53;32.80
68177;DHT22;56478;50.982;7.032;2023-04-03T15:36:47;12.46;34.24
68177;DHT22;56478;50.982;7.032;2023-04-03T15:39:12;12.30;34.46
68177;DHT22;56478;50.982;7.032;2023-04-03T15:41:38;12.25;35.76
68177;DHT22;56478;50.982;7.032;2023-04-03T15:44:03;12.22;34.16
68177;DHT22;56478;50.982;7.032;2023-04-03T15:46:29;12.26;35.67
68177;DHT22;56478;50.982;7.032;2023-04-03T15:48:55;12.32;35.25
68177;DHT22;56478;50.982;7.032;2023-04-03T15:51:20;12.22;34.76
68177;DHT22;56478;50.982;7.032;2023-04-03T15:53:46;12.12;34.86
68177;DHT22;56478;50.982;7.032;2023-04-03T15:56:11;12.02;38.52
68177;DHT22;56478;50.982;7.032;2023-04-03T15:58:37;11.91;34.90
68177;DHT22;56478;50.982;7.032;2023-04-03T16:01:03;11.91;35.20
68177;DHT22;56478;50.982;7.032;2023-04-03T16:03:28;11.89;36.17
68177;DHT22;56478;50.982;7.032;2023-04-03T16:05:55;11.80;34.47
68177;DHT22;56478;50.982;7.032;2023-04-03T16:08:20;11.84;35.67
68177;DHT22;56478;50.982;7.032;2023-04-03T16:10:46;11.73;34.19
68177;DHT22;56478;50.982;7.032;2023-04-03T16:13:13;11.42;36.34
68177;DHT22;56478;50.982;7.032;2023-04-03T16:15:39;11.35;35.76
68177;DHT22;56478;50.982;7.032;2023-04-03T16:18:05;11.29;36.13
68177;DHT22;56478;50.982;7.032;2023-04-03T16:20:31;11.18;36.94
68177;DHT22;56478;50.982;7.032;2023-04-03T16:22:58;11.37;36.69
68177;DHT22;56478;50.982;7.032;2023-04-03T16:25:24;11.39;36.20
68177;DHT22;56478;50.982;7.032;2023-04-03T16:27:50;11.29;36.13
68177;DHT22;56478;50.982;7.032;2023-04-03T16:30:15;11.15;36.68
68177;DHT22;56478;50.982;7.032;2023-04-03T16:32:41;11.01;36.94
68177;DHT22;56478;50.982;7.032;2023-04-03T16:35:08;10.94;38.52
68177;DHT22;56478;50.982;7.032;2023-04-03T16:37:35;10.91;38.24
68177;DHT22;56478;50.982;7.032;2023-04-03T16:40:01;10.97;37.81
68177;DHT22;56478;50.982;7.032;2023-04-03T16:42:28;11.04;38.51
68177;DHT22;56478;50.982;7.032;2023-04-03T16:44:53;10.91;38.24
68177;DHT22;56478;50.982;7.032;2023-04-03T16:47:19;10.87;37.98
68177;DHT22;56478;50.982;7.032;2023-04-03T16:49:45;10.80;38.69
68177;DHT22;56478;50.982;7.032;2023-04-03T16:52:11;10.71;37.02
68177;DHT22;56478;50.982;7.032;2023-04-03T16:54:37;10.74;37.94
68177;DHT22;56478;50.982;7.032;2023-04-03T16:57:02;10.55;37.64
68177;DHT22;56478;50.982;7.032;2023-04-03T16:59:28;10.57;37.97
68177;DHT22;56478;50.982;7.032;2023-04-03T17:01:53;10.50;37.41
68177;DHT22;56478;50.982;7.032;2023-04-03T17:04:19;10.26;37.99
68177;DHT22;56478;50.982;7.032;2023-04-03T17:06:44;10.25;37.64
68177;DHT22;56478;50.982;7.032;2023-04-03T17:09:10;10.14;38.20
68177;DHT22;56478;50.982;7.032;2023-04-03T17:11:36;10.19;38.13
68177;DHT22;56478;50.982;7.032;2023-04-03T17:14:04;10.04;37.73
68177;DHT22;56478;50.982;7.032;2023-04-03T17:16:30;10.01;37.80
68177;DHT22;56478;50.982;7.032;2023-04-03T17:18:57;9.87;38.20
68177;DHT22;56478;50.982;7.032;2023-04-03T17:21:23;9.88;37.77
68177;DHT22;56478;50.982;7.032;2023-04-03T17:23:57;9.80;38.11
68177;DHT22;56478;50.982;7.032;2023-04-03T17:26:25;9.76;37.81
68177;DHT22;56478;50.982;7.032;2023-04-03T17:28:51;9.71;38.43
68177;DHT22;56478;50.982;7.032;2023-04-03T17:31:17;9.73;38.95
68177;DHT22;56478;50.982;7.032;2023-04-03T17:33:42;9.76;38.38